createdAt,value
2018-02-19T00:02:14.034Z,27.90
2018-02-19T00:04:47.944Z,34.67
2018-02-19T00:07:22.424Z,36.90
2018-02-19T00:09:56.999Z,37.07
2018-02-19T00:12:31.858Z,27.17
2018-02-19T00:15:05.933Z,26.50
2018-02-19T00:17:39.660Z,34.30
2018-02-19T00:20:13.916Z,28.07
2018-02-19T00:22:48.158Z,24.80
2018-02-19T00:25:22.685Z,27.97
2018-02-19T00:27:56.618Z,28.20
2018-02-19T00:30:30.264Z,30.57
2018-02-19T00:33:04.200Z,28.67
2018-02-19T00:35:38.065Z,30.03
2018-02-19T00:38:11.871Z,24.80
2018-02-19T00:40:45.636Z,29.20
2018-02-19T00:43:19.821Z,24.37
2018-02-19T00:45:54.167Z,28.90
2018-02-19T00:48:28.416Z,30.07
2018-02-19T00:51:02.105Z,27.03
2018-02-19T00:53:35.944Z,23.13
2018-02-19T00:56:09.943Z,22.63
2018-02-19T00:58:44.552Z,30.07
2018-02-19T01:01:18.251Z,26.00
2018-02-19T01:03:52.214Z,29.50
2018-02-19T01:06:25.945Z,33.47
2018-02-19T01:09:00.504Z,24.60
2018-02-19T01:11:34.754Z,21.40
2018-02-19T01:14:09.283Z,25.23
2018-02-19T01:16:43.165Z,23.97
2018-02-19T01:19:17.771Z,24.23
2018-02-19T01:21:51.749Z,25.07
2018-02-19T01:24:25.733Z,34.63
2018-02-19T01:27:01.303Z,29.73
2018-02-19T01:29:35.511Z,23.80
2018-02-19T01:32:09.428Z,21.93
2018-02-19T01:34:43.103Z,24.07
2018-02-19T01:37:18.234Z,23.60
2018-02-19T01:39:52.162Z,23.57
2018-02-19T01:42:26.102Z,25.47
2018-02-19T01:45:00.544Z,22.83
2018-02-19T01:47:34.696Z,22.47
2018-02-19T01:50:16.029Z,22.87
2018-02-19T01:52:50.075Z,24.53
2018-02-19T01:55:23.964Z,26.50
2018-02-19T01:57:58.518Z,20.80
2018-02-19T02:00:32.313Z,22.90
2018-02-19T02:03:06.801Z,24.40
2018-02-19T02:05:40.916Z,26.17
2018-02-19T02:08:14.983Z,29.53
2018-02-19T02:10:48.741Z,23.00
2018-02-19T02:13:23.306Z,21.57
2018-02-19T02:15:57.278Z,18.57
2018-02-19T02:18:31.225Z,21.13
2018-02-19T02:21:04.876Z,22.77
2018-02-19T02:23:38.620Z,23.03
2018-02-19T02:26:12.381Z,20.50
2018-02-19T02:28:46.172Z,19.97
2018-02-19T02:31:19.939Z,17.70
2018-02-19T02:33:53.731Z,18.10
2018-02-19T02:36:27.447Z,20.80
2018-02-19T02:39:01.319Z,18.50
2018-02-19T02:41:35.903Z,20.83
2018-02-19T02:44:09.844Z,18.77
2018-02-19T02:46:43.677Z,20.20
2018-02-19T02:49:18.215Z,23.00
2018-02-19T02:51:52.891Z,18.30
2018-02-19T02:54:26.927Z,18.00
2018-02-19T02:57:00.785Z,18.73
2018-02-19T02:59:34.602Z,19.53
2018-02-19T03:02:08.275Z,19.43
2018-02-19T03:04:42.255Z,18.40
2018-02-19T03:07:15.988Z,18.47
2018-02-19T03:09:49.749Z,19.67
2018-02-19T03:12:24.260Z,20.07
2018-02-19T03:14:58.353Z,19.07
2018-02-19T03:17:31.993Z,20.50
2018-02-19T03:20:06.061Z,18.97
2018-02-19T03:22:40.478Z,20.90
2018-02-19T03:25:14.423Z,20.27
2018-02-19T03:27:48.363Z,20.13
2018-02-19T03:30:22.183Z,20.47
2018-02-19T03:32:55.937Z,20.10
2018-02-19T03:35:29.766Z,20.03
2018-02-19T03:38:03.675Z,19.73
2018-02-19T03:40:37.657Z,19.80
2018-02-19T03:43:12.769Z,21.33
2018-02-19T03:45:47.769Z,17.53
2018-02-19T03:48:21.694Z,19.30
2018-02-19T03:50:56.306Z,21.07
2018-02-19T03:53:30.216Z,21.87
2018-02-19T03:56:04.247Z,20.73
2018-02-19T03:58:37.966Z,20.27
2018-02-19T04:01:11.781Z,18.70
2018-02-19T04:03:46.807Z,22.33
2018-02-19T04:06:20.731Z,20.73
2018-02-19T04:08:54.448Z,20.17
2018-02-19T04:11:28.245Z,19.40
2018-02-19T04:14:01.895Z,19.57
2018-02-19T04:16:37.012Z,22.37
2018-02-19T04:19:11.066Z,20.23
2018-02-19T04:21:44.905Z,18.97
2018-02-19T04:24:18.546Z,18.40
2018-02-19T04:26:52.363Z,21.37
2018-02-19T04:29:26.659Z,21.33
2018-02-19T04:32:00.571Z,21.83
2018-02-19T04:34:35.035Z,20.70
2018-02-19T04:37:09.043Z,20.70
2018-02-19T04:39:43.603Z,22.20
2018-02-19T04:42:17.884Z,23.03
2018-02-19T04:44:55.611Z,18.73
2018-02-19T04:47:30.579Z,20.53
2018-02-19T04:50:04.840Z,21.87
2018-02-19T04:52:38.567Z,19.70
2018-02-19T04:55:12.392Z,21.30
2018-02-19T04:57:46.131Z,20.23
2018-02-19T05:00:20.008Z,22.30
2018-02-19T05:02:54.426Z,21.80
2018-02-19T05:05:28.360Z,23.03
2018-02-19T05:08:03.060Z,20.50
2018-02-19T05:10:38.476Z,21.03
2018-02-19T05:13:12.966Z,20.10
2018-02-19T05:15:46.603Z,20.23
2018-02-19T05:18:21.340Z,20.90
2018-02-19T05:20:56.154Z,21.53
2018-02-19T05:23:30.232Z,19.57
2018-02-19T05:26:04.110Z,22.37
2018-02-19T05:28:37.920Z,21.30
2018-02-19T05:31:12.509Z,21.53
2018-02-19T05:33:46.720Z,20.93
2018-02-19T05:36:20.780Z,21.00
2018-02-19T05:38:55.551Z,22.77
2018-02-19T05:41:29.445Z,21.00
2018-02-19T05:44:03.324Z,20.90
2018-02-19T05:46:36.970Z,20.37
2018-02-19T05:49:11.056Z,20.50
2018-02-19T05:51:44.916Z,25.10
2018-02-19T05:54:18.832Z,20.30
2018-02-19T05:56:52.698Z,21.50
2018-02-19T05:59:27.404Z,21.07
2018-02-19T06:02:01.339Z,21.10
2018-02-19T06:04:35.463Z,23.43
2018-02-19T06:07:09.246Z,24.53
2018-02-19T06:09:43.036Z,33.73
2018-02-19T06:12:17.485Z,23.13
2018-02-19T06:14:51.545Z,23.23
2018-02-19T06:17:26.037Z,25.37
2018-02-19T06:20:00.318Z,24.80
2018-02-19T06:22:34.079Z,24.33
2018-02-19T06:25:07.867Z,25.17
2018-02-19T06:27:41.656Z,22.87
2018-02-19T06:30:16.192Z,24.37
2018-02-19T06:32:50.222Z,23.80
2018-02-19T06:35:24.215Z,23.67
2018-02-19T06:37:59.151Z,25.60
2018-02-19T06:40:33.617Z,24.83
2018-02-19T06:43:07.874Z,23.20
2018-02-19T06:45:42.339Z,26.20
2018-02-19T06:48:17.046Z,30.13
2018-02-19T06:50:50.847Z,28.73
2018-02-19T06:53:25.470Z,28.83
2018-02-19T06:55:59.643Z,30.33
2018-02-19T06:58:34.195Z,26.80
2018-02-19T07:01:09.161Z,30.03
2018-02-19T07:03:43.273Z,28.20
2018-02-19T07:06:17.867Z,28.13
2018-02-19T07:08:52.162Z,28.67
2018-02-19T07:11:26.041Z,31.60
2018-02-19T07:14:00.027Z,28.40
2018-02-19T07:16:33.959Z,27.67
2018-02-19T07:19:07.795Z,23.93
2018-02-19T07:21:41.582Z,27.60
2018-02-19T07:24:15.203Z,31.37
2018-02-19T07:26:49.081Z,27.53
2018-02-19T07:29:23.534Z,25.20
2018-02-19T07:31:58.743Z,25.03
2018-02-19T07:34:34.215Z,24.17
2018-02-19T07:37:08.680Z,30.33
2018-02-19T07:39:43.272Z,35.93
2018-02-19T07:42:17.252Z,37.67
2018-02-19T07:44:51.083Z,31.37
2018-02-19T07:47:24.990Z,30.77
2018-02-19T07:50:00.642Z,49.77
2018-02-19T07:52:34.923Z,29.77
2018-02-19T07:55:09.609Z,46.10
2018-02-19T07:57:43.539Z,47.30
2018-02-19T08:00:18.199Z,42.73
2018-02-19T08:02:53.172Z,42.03
2018-02-19T08:05:27.556Z,36.03
2018-02-19T08:08:01.480Z,38.03
2018-02-19T08:10:35.295Z,33.67
2018-02-19T08:13:09.091Z,40.10
2018-02-19T08:15:42.918Z,33.17
2018-02-19T08:18:16.892Z,34.87
2018-02-19T08:20:51.519Z,27.70
2018-02-19T08:23:25.987Z,32.53
2018-02-19T08:26:00.329Z,26.50
2018-02-19T08:28:34.091Z,34.03
2018-02-19T08:31:07.936Z,27.07
2018-02-19T08:33:41.775Z,27.40
2018-02-19T08:36:16.203Z,29.40
2018-02-19T08:38:50.355Z,32.70
2018-02-19T08:41:24.845Z,32.47
2018-02-19T08:43:58.808Z,31.40
2018-02-19T08:46:32.661Z,33.03
2018-02-19T08:49:06.423Z,36.60
2018-02-19T08:51:40.106Z,35.63
2018-02-19T08:54:14.716Z,30.93
2018-02-19T08:56:48.628Z,25.30
2018-02-19T08:59:23.285Z,31.53
2018-02-19T09:01:57.719Z,34.50
2018-02-19T09:04:33.312Z,28.03
2018-02-19T09:07:07.745Z,29.13
2018-02-19T09:09:42.435Z,25.57
2018-02-19T09:12:16.524Z,29.77
2018-02-19T09:14:50.312Z,24.37
2018-02-19T09:17:24.177Z,29.30
2018-02-19T09:19:57.919Z,29.17
2018-02-19T09:22:31.855Z,27.37
2018-02-19T09:25:05.612Z,35.73
2018-02-19T09:27:39.355Z,30.87
2018-02-19T09:30:13.565Z,28.43
2018-02-19T09:32:47.335Z,27.73
2018-02-19T09:35:21.302Z,27.10
2018-02-19T09:37:55.141Z,27.57
2018-02-19T09:40:29.095Z,29.07
2018-02-19T09:43:03.081Z,28.23
2018-02-19T09:45:37.767Z,32.20
2018-02-19T09:48:13.083Z,28.50
2018-02-19T09:50:47.119Z,28.93
2018-02-19T09:53:21.149Z,24.43
2018-02-19T09:55:55.559Z,26.87
2018-02-19T09:58:29.482Z,23.43
2018-02-19T10:01:04.177Z,25.87
2018-02-19T10:03:39.011Z,23.90
2018-02-19T10:06:13.228Z,22.40
2018-02-19T10:08:47.724Z,27.10
2018-02-19T10:11:23.351Z,24.17
2018-02-19T10:13:57.492Z,20.90
2018-02-19T10:16:32.279Z,20.37
2018-02-19T10:19:06.273Z,22.63
2018-02-19T10:21:41.654Z,24.27
2018-02-19T10:24:16.955Z,21.10
2018-02-19T10:26:50.895Z,19.50
2018-02-19T10:29:24.599Z,20.53
2018-02-19T10:31:58.602Z,19.77
2018-02-19T10:34:32.288Z,22.10
2018-02-19T10:37:07.060Z,22.40
2018-02-19T10:39:40.960Z,25.10
2018-02-19T10:42:14.839Z,23.60
2018-02-19T10:44:48.633Z,27.40
2018-02-19T10:47:22.468Z,22.83
2018-02-19T10:49:56.135Z,23.13
2018-02-19T10:52:30.810Z,23.13
2018-02-19T10:55:04.551Z,25.37
2018-02-19T10:57:38.418Z,22.37
2018-02-19T11:00:13.585Z,20.73
2018-02-19T11:02:48.335Z,21.13
2018-02-19T11:05:22.780Z,23.60
2018-02-19T11:07:56.619Z,22.97
2018-02-19T11:10:31.865Z,24.17
2018-02-19T11:13:07.036Z,25.13
2018-02-19T11:15:41.159Z,22.83
2018-02-19T11:18:16.485Z,24.47
2018-02-19T11:20:50.559Z,22.60
2018-02-19T11:23:25.652Z,18.17
2018-02-19T11:26:00.208Z,19.73
2018-02-19T11:28:34.164Z,24.63
2018-02-19T11:31:09.507Z,22.00
2018-02-19T11:33:44.339Z,20.20
2018-02-19T11:36:19.565Z,25.10
2018-02-19T11:38:55.448Z,19.00
2018-02-19T11:41:27.596Z,23.10
2018-02-19T11:44:01.806Z,17.47
2018-02-19T11:46:35.650Z,19.27
2018-02-19T11:49:09.467Z,18.40
2018-02-19T11:51:43.351Z,18.53
2018-02-19T11:54:18.471Z,19.77
2018-02-19T11:56:52.763Z,18.43
2018-02-19T11:59:27.220Z,21.83
2018-02-19T12:02:01.182Z,21.40
2018-02-19T12:04:35.008Z,34.37
2018-02-19T12:07:08.948Z,19.57
2018-02-19T12:09:42.736Z,19.57
2018-02-19T12:12:17.344Z,20.03
2018-02-19T12:14:52.306Z,18.40
2018-02-19T12:17:27.500Z,21.13
2018-02-19T12:20:01.504Z,20.57
2018-02-19T12:22:36.260Z,19.20
2018-02-19T12:25:10.271Z,21.93
2018-02-19T12:27:44.970Z,21.10
2018-02-19T12:30:20.007Z,19.53
2018-02-19T12:32:53.810Z,21.20
2018-02-19T12:35:27.585Z,19.70
2018-02-19T12:38:01.819Z,18.83
2018-02-19T12:40:35.922Z,18.93
2018-02-19T12:43:10.425Z,22.00
2018-02-19T12:45:45.545Z,20.60
2018-02-19T12:48:20.436Z,25.37
2018-02-19T12:50:54.600Z,22.03
2018-02-19T12:53:28.368Z,21.30
2018-02-19T12:56:02.548Z,24.10
2018-02-19T12:58:36.859Z,20.73
2018-02-19T13:01:10.759Z,21.20
2018-02-19T13:03:44.439Z,20.47
2018-02-19T13:06:18.952Z,22.07
2018-02-19T13:08:53.010Z,24.13
2018-02-19T13:11:30.187Z,23.87
2018-02-19T13:14:04.902Z,23.97
2018-02-19T13:16:39.508Z,20.77
2018-02-19T13:19:13.526Z,18.67
2018-02-19T13:21:47.210Z,21.63
2018-02-19T13:24:21.020Z,21.60
2018-02-19T13:26:55.740Z,18.87
2018-02-19T13:29:29.744Z,20.37
2018-02-19T13:32:04.036Z,21.40
2018-02-19T13:34:38.564Z,20.00
2018-02-19T13:37:12.687Z,23.37
2018-02-19T13:39:46.730Z,21.83
2018-02-19T13:42:20.720Z,21.53
2018-02-19T13:44:54.640Z,24.53
2018-02-19T13:47:28.492Z,24.37
2018-02-19T13:50:02.229Z,25.27
2018-02-19T13:52:37.721Z,22.13
2018-02-19T13:55:13.022Z,21.13
2018-02-19T13:57:48.279Z,24.40
2018-02-19T14:00:23.377Z,22.37
2018-02-19T14:02:57.437Z,20.57
2018-02-19T14:05:32.017Z,22.80
2018-02-19T14:08:06.099Z,23.17
2018-02-19T14:10:39.730Z,21.83
2018-02-19T14:13:14.276Z,25.60
2018-02-19T14:15:49.381Z,25.63
2018-02-19T14:18:23.563Z,22.80
2018-02-19T14:20:57.382Z,22.30
2018-02-19T14:23:31.143Z,27.43
2018-02-19T14:26:05.047Z,22.33
2018-02-19T14:28:38.972Z,24.90
2018-02-19T14:31:12.828Z,21.97
2018-02-19T14:33:47.115Z,24.63
2018-02-19T14:36:20.870Z,25.13
2018-02-19T14:38:55.135Z,23.00
2018-02-19T14:41:29.036Z,22.03
2018-02-19T14:44:03.625Z,24.13
2018-02-19T14:46:37.443Z,21.57
2018-02-19T14:49:12.075Z,24.90
2018-02-19T14:51:46.099Z,26.07
2018-02-19T14:54:20.910Z,24.40
2018-02-19T14:56:55.167Z,22.33
2018-02-19T14:59:29.756Z,25.50
2018-02-19T15:02:03.907Z,28.67
2018-02-19T15:04:39.341Z,24.33
2018-02-19T15:07:13.506Z,23.00
2018-02-19T15:09:47.359Z,27.57
2018-02-19T15:12:22.140Z,27.47
2018-02-19T15:14:56.186Z,26.93
2018-02-19T15:17:30.084Z,25.37
2018-02-19T15:20:04.359Z,25.90
2018-02-19T15:22:38.811Z,22.83
2018-02-19T15:25:13.624Z,22.93
2018-02-19T15:27:47.647Z,26.07
2018-02-19T15:30:22.425Z,29.73
2018-02-19T15:32:57.307Z,28.23
2018-02-19T15:35:31.272Z,24.93
2018-02-19T15:38:05.932Z,26.70
2018-02-19T15:40:40.461Z,28.20
2018-02-19T15:43:15.307Z,28.60
2018-02-19T15:45:49.995Z,22.90
2018-02-19T15:48:24.930Z,22.57
2018-02-19T15:50:59.031Z,26.67
2018-02-19T15:53:32.761Z,33.10
2018-02-19T15:56:06.655Z,29.33
2018-02-19T15:58:41.575Z,28.73
2018-02-19T16:01:15.543Z,22.90
2018-02-19T16:03:49.431Z,26.03
2018-02-19T16:06:23.099Z,32.73
2018-02-19T16:08:57.935Z,28.23
2018-02-19T16:11:31.804Z,29.00
2018-02-19T16:14:05.395Z,27.30
2018-02-19T16:16:40.222Z,24.17
2018-02-19T16:19:14.478Z,26.83
2018-02-19T16:21:48.548Z,28.60
2018-02-19T16:24:23.017Z,24.17
2018-02-19T16:26:57.416Z,29.23
2018-02-19T16:29:32.252Z,31.53
2018-02-19T16:32:05.955Z,25.83
2018-02-19T16:34:39.873Z,26.43
2018-02-19T16:37:14.600Z,28.13
2018-02-19T16:39:48.263Z,29.87
2018-02-19T16:42:22.858Z,28.80
2018-02-19T16:44:57.747Z,27.87
2018-02-19T16:47:31.761Z,24.57
2018-02-19T16:50:06.701Z,24.90
2018-02-19T16:52:41.321Z,27.33
2018-02-19T16:55:16.903Z,25.10
2018-02-19T16:57:51.526Z,25.63
2018-02-19T17:00:26.120Z,26.17
2018-02-19T17:03:01.322Z,31.90
2018-02-19T17:05:35.419Z,30.87
2018-02-19T17:08:10.108Z,27.10
2018-02-19T17:10:44.746Z,30.23
2018-02-19T17:13:20.210Z,26.67
2018-02-19T17:15:54.992Z,24.53
2018-02-19T17:18:28.996Z,27.47
2018-02-19T17:21:03.775Z,33.47
2018-02-19T17:23:37.474Z,26.63
2018-02-19T17:26:11.287Z,29.37
2018-02-19T17:28:46.015Z,30.13
2018-02-19T17:31:20.681Z,32.40
2018-02-19T17:33:56.268Z,29.03
2018-02-19T17:36:31.043Z,30.90
2018-02-19T17:39:05.940Z,34.03
2018-02-19T17:41:41.019Z,28.73
2018-02-19T17:44:15.305Z,27.00
2018-02-19T17:46:49.965Z,27.00
2018-02-19T17:49:24.043Z,28.90
2018-02-19T17:51:57.995Z,28.60
2018-02-19T17:54:32.999Z,29.37
2018-02-19T17:57:06.966Z,27.93
2018-02-19T17:59:40.843Z,30.13
2018-02-19T18:02:15.482Z,31.70
2018-02-19T18:04:49.671Z,31.27
2018-02-19T18:07:23.783Z,35.20
2018-02-19T18:09:57.924Z,31.37
2018-02-19T18:12:31.776Z,29.10
2018-02-19T18:15:05.652Z,25.73
2018-02-19T18:17:40.281Z,35.37
2018-02-19T18:20:14.581Z,28.33
2018-02-19T18:22:50.088Z,27.63
2018-02-19T18:25:23.903Z,30.40
2018-02-19T18:27:58.645Z,29.50
2018-02-19T18:30:33.290Z,28.80
2018-02-19T18:33:07.477Z,31.07
2018-02-19T18:35:42.913Z,30.43
2018-02-19T18:38:17.502Z,32.90
2018-02-19T18:40:51.529Z,32.77
2018-02-19T18:43:25.349Z,28.33
2018-02-19T18:45:59.113Z,29.90
2018-02-19T18:48:33.690Z,29.70
2018-02-19T18:51:07.625Z,25.57
2018-02-19T18:53:42.223Z,31.67
2018-02-19T18:56:16.010Z,30.27
2018-02-19T18:58:50.728Z,30.73
2018-02-19T19:01:28.620Z,30.87
2018-02-19T19:04:04.304Z,36.50
2018-02-19T19:06:39.174Z,30.37
2018-02-19T19:12:21.571Z,32.20
2018-02-19T19:14:56.926Z,28.33
2018-02-19T19:17:31.765Z,28.07
2018-02-19T19:20:06.525Z,27.77
2018-02-19T19:22:40.976Z,33.80
2018-02-19T19:25:15.093Z,30.03
2018-02-19T19:27:49.219Z,34.60
2018-02-19T19:30:23.082Z,29.87
2018-02-19T19:32:57.303Z,28.77
2018-02-19T19:35:31.899Z,28.00
2018-02-19T19:38:06.547Z,34.27
2018-02-19T19:40:41.323Z,24.73
2018-02-19T19:43:16.816Z,27.87
2018-02-19T19:45:51.269Z,26.20
2018-02-19T19:48:25.985Z,33.10
2018-02-19T19:51:01.055Z,33.10
2018-02-19T19:53:35.409Z,32.60
2018-02-19T19:56:09.540Z,32.93
2018-02-19T19:58:44.160Z,31.10
2018-02-19T20:01:18.126Z,29.93
2018-02-19T20:03:53.092Z,29.57
2018-02-19T20:06:27.339Z,27.97
2018-02-19T20:09:01.199Z,30.07
2018-02-19T20:11:34.956Z,28.03
2018-02-19T20:14:08.824Z,29.27
2018-02-19T20:16:42.435Z,32.53
2018-02-19T20:19:17.040Z,26.10
2018-02-19T20:21:50.998Z,30.10
2018-02-19T20:24:24.839Z,32.63
2018-02-19T20:26:59.561Z,27.13
2018-02-19T20:29:33.399Z,23.67
2018-02-19T20:32:07.811Z,30.70
2018-02-19T20:34:41.999Z,29.50
2018-02-19T20:37:15.683Z,26.77
2018-02-19T20:39:49.436Z,27.43
2018-02-19T20:42:23.847Z,29.17
2018-02-19T20:44:58.448Z,23.90
2018-02-19T20:47:32.448Z,24.47
2018-02-19T20:50:06.442Z,29.20
2018-02-19T20:52:40.802Z,27.87
2018-02-19T20:55:14.601Z,30.67
2018-02-19T20:57:48.651Z,24.60
2018-02-19T21:00:23.307Z,27.83
2018-02-19T21:02:58.751Z,26.63
2018-02-19T21:05:32.894Z,31.63
2018-02-19T21:08:06.627Z,25.53
2018-02-19T21:10:41.980Z,24.00
2018-02-19T21:13:16.374Z,26.77
2018-02-19T21:15:50.298Z,24.50
2018-02-19T21:18:25.052Z,27.87
2018-02-19T21:21:00.556Z,27.60
2018-02-19T21:23:34.521Z,29.73
2018-02-19T21:26:09.261Z,31.00
2018-02-19T21:28:43.990Z,27.73
2018-02-19T21:31:17.733Z,27.63
2018-02-19T21:33:51.784Z,26.43
2018-02-19T21:36:25.653Z,28.63
2018-02-19T21:38:59.276Z,26.40
2018-02-19T21:41:33.852Z,29.00
2018-02-19T21:44:07.888Z,22.10
2018-02-19T21:46:41.744Z,25.13
2018-02-19T21:49:16.360Z,26.27
2018-02-19T21:54:31.964Z,25.33
2018-02-19T21:57:06.074Z,24.37
2018-02-19T21:59:40.644Z,24.17
2018-02-19T22:02:14.528Z,24.10
2018-02-19T22:04:50.442Z,22.33
2018-02-19T22:07:26.537Z,25.70
2018-02-19T22:10:01.888Z,23.20
2018-02-19T22:12:36.587Z,24.33
2018-02-19T22:15:11.415Z,25.60
2018-02-19T22:17:45.949Z,25.87
2018-02-19T22:20:21.071Z,24.83
2018-02-19T22:22:56.442Z,26.07
2018-02-19T22:25:31.363Z,29.87
2018-02-19T22:28:06.403Z,28.77
2018-02-19T22:30:42.366Z,29.60
2018-02-19T22:33:18.240Z,25.93
2018-02-19T22:35:54.006Z,25.47
2018-02-19T22:38:29.113Z,26.20
2018-02-19T22:41:03.783Z,28.40
2018-02-19T22:43:39.268Z,28.67
2018-02-19T22:46:14.446Z,27.63
2018-02-19T22:48:48.833Z,27.17
2018-02-19T22:51:22.815Z,25.93
2018-02-19T22:53:56.692Z,22.50
2018-02-19T22:56:30.571Z,24.70
2018-02-19T22:59:05.291Z,23.73
2018-02-19T23:01:40.387Z,26.23
2018-02-19T23:04:15.138Z,27.43
2018-02-19T23:06:48.945Z,26.03
2018-02-19T23:09:23.633Z,27.77
2018-02-19T23:11:57.450Z,25.93
2018-02-19T23:14:31.436Z,26.03
2018-02-19T23:17:06.251Z,25.73
2018-02-19T23:19:40.900Z,25.23
2018-02-19T23:22:14.606Z,25.80
2018-02-19T23:24:48.389Z,26.13
2018-02-19T23:27:22.069Z,22.23
2018-02-19T23:29:56.481Z,25.90
2018-02-19T23:32:30.594Z,30.07
2018-02-19T23:35:04.259Z,28.47
2018-02-19T23:37:37.892Z,25.63
2018-02-19T23:40:12.183Z,25.77
2018-02-19T23:42:46.937Z,28.23
2018-02-19T23:45:21.177Z,24.20
2018-02-19T23:47:55.056Z,26.57
2018-02-19T23:50:29.112Z,25.10
2018-02-19T23:53:03.652Z,28.90
2018-02-19T23:55:38.731Z,30.67
2018-02-19T23:58:12.644Z,30.67
